Time;durP1;ratioP1;P1;durP2;ratioP2;P2;SDS_P1;SDS_P2;PMS_P1;PMS_P2;Temp;Humidity;BMP_temperature;BMP_pressure;BME280_temperature;BME280_humidity;BME280_pressure;Samples;Min_cycle;Max_cycle;Signal;HPM_P1;HPM_P2
2021/07/29 00:01:00;;;;;;;4.20;3.80;;;33.40;47.80;;;;;;5009931;28;20528;-28
2021/07/29 00:03:31;;;;;;;3.80;3.50;;;33.30;47.60;;;;;;5010065;28;20462;-28
2021/07/29 00:06:04;;;;;;;4.60;4.20;;;33.40;49.00;;;;;;5005340;28;20449;-28
2021/07/29 00:08:35;;;;;;;4.30;3.90;;;33.40;49.90;;;;;;5016899;28;20525;-28
2021/07/29 00:11:06;;;;;;;4.73;4.33;;;33.50;50.80;;;;;;5006606;28;20502;-28
2021/07/29 00:13:37;;;;;;;5.00;4.60;;;33.60;50.10;;;;;;5020744;28;20510;-28
2021/07/29 00:16:08;;;;;;;4.40;4.00;;;33.60;50.50;;;;;;5005764;28;20490;-28
2021/07/29 00:21:29;;;;;;;4.50;4.20;;;33.40;50.00;;;;;;5020713;28;20977;-29
2021/07/29 00:24:00;;;;;;;4.40;4.00;;;33.40;49.10;;;;;;5018008;28;20451;-27
2021/07/29 00:26:31;;;;;;;5.27;4.17;;;33.30;49.00;;;;;;5021110;28;20461;-28
2021/07/29 00:29:02;;;;;;;4.03;3.73;;;33.20;49.50;;;;;;5022669;28;20451;-28
2021/07/29 00:31:34;;;;;;;3.40;3.20;;;33.10;48.40;;;;;;5011980;28;20489;-29
2021/07/29 00:34:06;;;;;;;4.30;3.80;;;32.90;49.50;;;;;;5018918;28;20520;-29
2021/07/29 00:36:39;;;;;;;4.43;3.57;;;32.90;49.70;;;;;;5025903;28;20511;-27
2021/07/29 00:39:10;;;;;;;3.90;3.50;;;32.80;50.30;;;;;;5021417;28;20449;-28
2021/07/29 00:41:41;;;;;;;4.07;3.77;;;32.80;49.30;;;;;;5006833;28;20528;-27
2021/07/29 00:44:13;;;;;;;4.03;3.63;;;32.90;48.20;;;;;;5020981;28;20522;-27
2021/07/29 00:46:44;;;;;;;4.83;3.63;;;32.90;48.30;;;;;;5020704;28;20467;-27
2021/07/29 00:49:15;;;;;;;4.20;3.90;;;32.90;48.60;;;;;;5023797;28;20475;-28
2021/07/29 00:51:48;;;;;;;4.70;4.30;;;33.00;48.20;;;;;;5019297;28;20447;-30
2021/07/29 00:54:19;;;;;;;4.50;4.10;;;33.00;48.30;;;;;;5017916;28;20452;-27
2021/07/29 00:56:50;;;;;;;4.10;3.70;;;33.00;48.70;;;;;;5012017;28;20508;-27
2021/07/29 00:59:21;;;;;;;3.77;3.47;;;33.00;48.00;;;;;;5015765;28;20543;-27
2021/07/29 01:01:53;;;;;;;4.60;4.27;;;33.00;46.50;;;;;;5015058;28;20464;-27
2021/07/29 01:04:24;;;;;;;4.53;4.13;;;33.00;46.40;;;;;;5017846;28;20457;-27
2021/07/29 01:06:57;;;;;;;5.13;4.67;;;33.00;46.30;;;;;;5015338;28;20449;-28
2021/07/29 01:09:28;;;;;;;8.00;7.30;;;32.80;46.40;;;;;;5014675;28;20444;-28
2021/07/29 01:11:59;;;;;;;4.80;4.40;;;32.80;46.10;;;;;;5017981;28;20528;-27
2021/07/29 01:14:30;;;;;;;4.70;4.30;;;32.70;45.80;;;;;;5022642;28;20450;-28
2021/07/29 01:17:01;;;;;;;3.93;3.63;;;32.60;45.60;;;;;;5010702;28;20573;-28
2021/07/29 01:19:33;;;;;;;4.83;4.33;;;32.60;45.10;;;;;;5018921;28;20808;-28
2021/07/29 01:22:05;;;;;;;10.33;9.03;;;32.40;45.60;;;;;;5023762;28;20456;-28
2021/07/29 01:24:36;;;;;;;5.87;4.90;;;32.40;46.70;;;;;;5023561;28;20453;-27
2021/07/29 01:27:07;;;;;;;11.23;9.57;;;32.30;46.60;;;;;;5024267;28;20461;-28
2021/07/29 01:29:38;;;;;;;5.23;4.27;;;32.30;46.50;;;;;;5023814;28;20530;-28
2021/07/29 01:32:10;;;;;;;4.10;3.70;;;32.20;45.10;;;;;;5032665;28;20456;-28
2021/07/29 01:34:41;;;;;;;4.30;3.90;;;32.10;45.60;;;;;;5023920;28;20530;-28
2021/07/29 01:37:13;;;;;;;4.30;3.90;;;32.00;46.20;;;;;;5007938;28;20484;-27
2021/07/29 01:39:44;;;;;;;4.40;4.00;;;32.00;45.30;;;;;;5016424;28;20526;-27
2021/07/29 01:42:15;;;;;;;4.37;4.00;;;31.80;44.70;;;;;;5006605;28;20464;-27
2021/07/29 01:44:47;;;;;;;4.90;4.17;;;31.80;45.30;;;;;;5013259;28;20506;-27
2021/07/29 01:47:18;;;;;;;3.60;3.30;;;31.80;45.60;;;;;;5018517;28;20465;-28
2021/07/29 01:49:49;;;;;;;4.20;3.80;;;31.70;45.70;;;;;;5024083;28;20451;-28
2021/07/29 01:52:21;;;;;;;3.63;3.33;;;31.60;46.00;;;;;;5023643;28;20475;-28
2021/07/29 01:54:52;;;;;;;4.33;3.83;;;31.50;46.00;;;;;;5022323;28;20971;-28
2021/07/29 01:57:23;;;;;;;4.40;4.00;;;31.40;46.30;;;;;;5009028;28;20497;-28
2021/07/29 01:59:55;;;;;;;4.00;3.53;;;31.20;46.00;;;;;;5022779;28;20511;-28
2021/07/29 02:02:26;;;;;;;4.20;3.80;;;31.10;46.20;;;;;;5020422;28;20955;-27
2021/07/29 02:04:57;;;;;;;3.83;3.53;;;31.10;46.60;;;;;;5017183;28;20939;-28
2021/07/29 02:07:29;;;;;;;3.83;3.53;;;30.90;46.60;;;;;;5020984;28;20507;-28
2021/07/29 02:10:01;;;;;;;4.43;4.03;;;30.90;47.50;;;;;;5018647;28;20928;-28
2021/07/29 02:12:32;;;;;;;3.27;3.03;;;30.80;47.60;;;;;;5005533;28;20532;-28
2021/07/29 02:15:03;;;;;;;6.47;4.10;;;30.70;47.80;;;;;;5008962;28;20861;-28
2021/07/29 02:17:34;;;;;;;3.90;3.60;;;30.60;49.10;;;;;;5009150;28;20507;-28
2021/07/29 02:20:05;;;;;;;4.27;3.97;;;30.40;49.30;;;;;;5014499;28;20473;-27
2021/07/29 02:22:38;;;;;;;4.00;3.60;;;30.30;48.60;;;;;;5020992;28;20456;-27
2021/07/29 02:25:12;;;;;;;5.73;4.30;;;30.20;49.40;;;;;;5017083;28;20447;-28
2021/07/29 02:27:42;;;;;;;6.83;4.10;;;30.10;50.30;;;;;;5023441;28;20451;-28
2021/07/29 02:30:14;;;;;;;4.50;4.10;;;29.90;50.90;;;;;;5010009;28;20459;-28
2021/07/29 02:32:45;;;;;;;5.07;4.47;;;29.80;51.50;;;;;;5003481;28;20453;-28
2021/07/29 02:35:16;;;;;;;5.10;4.60;;;29.90;51.20;;;;;;5015511;28;20506;-28
2021/07/29 02:37:48;;;;;;;4.90;3.90;;;29.80;51.30;;;;;;5011091;28;20503;-28
2021/07/29 02:40:19;;;;;;;4.60;4.20;;;29.80;51.50;;;;;;5010467;28;20796;-28
2021/07/29 02:42:50;;;;;;;5.00;4.50;;;29.80;51.90;;;;;;5006688;28;20533;-28
2021/07/29 02:45:29;;;;;;;4.77;4.37;;;29.80;52.20;;;;;;5020651;28;20509;-28
2021/07/29 02:48:17;;;;;;;5.27;4.10;;;29.80;52.60;;;;;;5004319;28;20785;-28
2021/07/29 02:50:54;;;;;;;4.80;4.20;;;29.60;53.90;;;;;;5021335;28;20490;-29
2021/07/29 02:53:32;;;;;;;4.70;4.10;;;29.40;54.30;;;;;;5013009;28;20516;-28
2021/07/29 02:56:05;;;;;;;4.77;4.33;;;29.30;55.20;;;;;;5019635;28;20643;-28
2021/07/29 02:58:36;;;;;;;4.53;4.00;;;29.20;56.00;;;;;;5020174;28;20517;-28
2021/07/29 03:01:07;;;;;;;4.80;4.40;;;29.00;56.60;;;;;;5004974;28;20545;-28
2021/07/29 03:03:39;;;;;;;4.37;3.63;;;28.80;58.00;;;;;;5017953;28;20566;-28
2021/07/29 03:06:10;;;;;;;5.20;4.70;;;28.70;59.10;;;;;;5015495;28;20476;-29
2021/07/29 03:08:54;;;;;;;4.77;4.33;;;28.60;58.80;;;;;;5012601;28;20457;-28
2021/07/29 03:11:30;;;;;;;4.73;4.00;;;28.50;59.50;;;;;;5003106;28;20459;-28
2021/07/29 03:14:06;;;;;;;4.47;4.07;;;28.40;60.00;;;;;;5016046;28;20469;-28
2021/07/29 03:16:40;;;;;;;4.90;4.40;;;28.30;60.60;;;;;;5002432;28;20505;-28
2021/07/29 03:19:29;;;;;;;5.20;4.80;;;28.30;59.80;;;;;;5014951;28;20504;-28
2021/07/29 03:22:24;;;;;;;4.93;4.30;;;28.30;59.80;;;;;;5019778;28;20497;-28
2021/07/29 03:25:02;;;;;;;4.80;4.00;;;28.40;59.10;;;;;;5003045;28;20444;-28
2021/07/29 03:27:45;;;;;;;5.20;4.67;;;28.50;59.40;;;;;;5009623;28;20500;-28
2021/07/29 03:30:23;;;;;;;5.03;4.40;;;28.50;59.10;;;;;;5020681;28;20489;-29
2021/07/29 03:35:56;;;;;;;5.37;4.97;;;28.40;61.20;;;;;;5016373;28;20453;-28
2021/07/29 03:38:48;;;;;;;4.60;4.20;;;28.20;62.90;;;;;;5005174;28;20616;-28
2021/07/29 03:41:38;;;;;;;4.70;4.30;;;28.10;63.70;;;;;;5006575;28;20485;-27
2021/07/29 03:44:28;;;;;;;4.53;4.13;;;27.90;64.70;;;;;;5020810;28;20492;-27
2021/07/29 03:47:08;;;;;;;4.30;4.00;;;27.80;64.80;;;;;;5018293;28;20457;-26
2021/07/29 03:49:56;;;;;;;6.93;4.57;;;27.70;63.80;;;;;;5004561;28;20494;-27
2021/07/29 03:55:19;;;;;;;5.17;4.67;;;27.80;63.20;;;;;;5018771;28;20446;-25
2021/07/29 03:57:59;;;;;;;5.10;4.40;;;27.90;63.00;;;;;;5016391;28;20465;-27
2021/07/29 04:00:35;;;;;;;5.47;3.63;;;28.00;64.40;;;;;;5014044;28;20457;-26
2021/07/29 04:06:31;;;;;;;4.60;4.20;;;27.90;64.80;;;;;;5007697;28;20450;-26
2021/07/29 04:09:21;;;;;;;4.73;4.33;;;27.80;66.70;;;;;;5022312;28;20507;-26
2021/07/29 04:15:21;;;;;;;4.73;4.23;;;27.60;68.80;;;;;;5008100;28;21198;-26
2021/07/29 04:17:59;;;;;;;3.97;3.67;;;27.50;70.00;;;;;;5017005;28;20453;-26
2021/07/29 04:20:30;;;;;;;6.00;4.30;;;27.40;71.10;;;;;;5021303;28;20456;-27
2021/07/29 04:23:18;;;;;;;6.30;4.30;;;27.40;71.10;;;;;;5016350;28;20525;-27
2021/07/29 04:25:58;;;;;;;4.27;3.93;;;27.40;70.70;;;;;;5022560;28;20457;-26
2021/07/29 04:28:33;;;;;;;5.20;4.57;;;27.50;71.10;;;;;;5017715;28;20536;-27
2021/07/29 04:31:25;;;;;;;4.17;3.73;;;27.50;72.40;;;;;;5020147;28;20457;-27
2021/07/29 04:33:59;;;;;;;4.57;4.17;;;27.50;72.60;;;;;;5026042;28;20444;-27
2021/07/29 04:36:32;;;;;;;5.67;4.60;;;27.40;73.20;;;;;;5024561;28;20481;-27
2021/07/29 04:39:14;;;;;;;4.73;4.23;;;27.40;73.70;;;;;;5017230;28;20491;-26
2021/07/29 04:42:04;;;;;;;5.63;4.37;;;27.30;74.50;;;;;;5030219;28;20450;-26
2021/07/29 04:44:48;;;;;;;4.80;3.80;;;27.20;74.90;;;;;;5014631;28;20475;-27
2021/07/29 04:47:32;;;;;;;4.83;4.43;;;27.10;75.30;;;;;;5014649;28;20449;-26
2021/07/29 04:50:26;;;;;;;4.97;3.97;;;27.00;75.70;;;;;;5014250;28;20451;-27
2021/07/29 04:53:18;;;;;;;6.93;3.83;;;26.90;75.40;;;;;;5010468;28;20455;-26
2021/07/29 04:56:09;;;;;;;5.07;4.47;;;26.80;75.60;;;;;;5013470;28;20527;-26
2021/07/29 04:58:53;;;;;;;3.63;3.30;;;26.80;75.70;;;;;;5012388;28;20570;-27
2021/07/29 05:01:24;;;;;;;3.67;3.37;;;26.70;75.10;;;;;;5017889;28;20439;-26
2021/07/29 05:03:57;;;;;;;4.50;4.10;;;26.60;75.90;;;;;;5008426;28;20933;-26
2021/07/29 05:06:33;;;;;;;4.50;3.97;;;26.60;76.00;;;;;;5013201;28;20965;-26
2021/07/29 05:09:21;;;;;;;5.47;4.27;;;26.50;76.10;;;;;;5014977;28;20562;-26
2021/07/29 05:11:52;;;;;;;5.60;4.57;;;26.40;77.10;;;;;;5013018;28;20456;-26
2021/07/29 05:14:48;;;;;;;5.00;4.23;;;26.30;77.60;;;;;;5009097;28;20506;-27
2021/07/29 05:17:23;;;;;;;4.70;4.30;;;26.20;78.90;;;;;;5008117;28;20502;-27
2021/07/29 05:20:02;;;;;;;4.00;3.60;;;26.20;78.10;;;;;;5007640;28;20491;-27
2021/07/29 05:22:33;;;;;;;4.40;3.93;;;26.00;79.20;;;;;;5018499;28;20458;-26
2021/07/29 05:25:04;;;;;;;4.23;3.83;;;26.00;79.00;;;;;;5019385;28;20517;-26
2021/07/29 05:27:35;;;;;;;5.07;4.67;;;25.90;78.90;;;;;;5011036;28;20471;-27
2021/07/29 05:30:36;;;;;;;5.17;4.37;;;25.90;79.00;;;;;;5012332;28;20942;-27
2021/07/29 05:33:17;;;;;;;6.43;4.10;;;25.80;79.60;;;;;;5009481;28;20543;-27
2021/07/29 05:35:56;;;;;;;4.00;3.60;;;25.70;79.80;;;;;;5023855;28;20612;-28
2021/07/29 05:38:43;;;;;;;4.90;3.90;;;25.60;79.90;;;;;;5021124;28;20493;-27
2021/07/29 05:41:28;;;;;;;3.97;3.67;;;25.60;79.80;;;;;;5018575;28;20831;-28
2021/07/29 05:44:14;;;;;;;4.93;4.50;;;25.50;80.20;;;;;;5024147;28;20481;-27
2021/07/29 05:46:49;;;;;;;4.53;4.07;;;25.50;80.30;;;;;;5010862;28;20477;-27
2021/07/29 05:49:23;;;;;;;4.30;3.67;;;25.30;81.20;;;;;;5010760;28;20451;-27
2021/07/29 05:51:56;;;;;;;4.40;3.70;;;25.30;81.80;;;;;;5022943;28;20565;-28
2021/07/29 05:54:29;;;;;;;4.20;3.90;;;25.20;82.10;;;;;;5022500;28;20454;-28
2021/07/29 05:57:02;;;;;;;3.87;3.43;;;25.10;82.50;;;;;;5020152;28;20504;-28
2021/07/29 05:59:35;;;;;;;6.67;4.17;;;25.00;83.00;;;;;;5022654;28;20535;-28
2021/07/29 06:02:10;;;;;;;4.17;3.77;;;24.90;84.10;;;;;;5023004;28;20515;-28
2021/07/29 06:04:41;;;;;;;4.73;3.60;;;24.80;84.00;;;;;;5014956;28;20492;-28
2021/07/29 06:07:13;;;;;;;4.50;4.10;;;24.80;84.50;;;;;;5021287;28;20425;-27
2021/07/29 06:09:44;;;;;;;4.47;4.17;;;24.80;84.70;;;;;;5012935;28;20497;-27
2021/07/29 06:12:16;;;;;;;5.20;4.37;;;24.70;84.40;;;;;;5017995;28;20454;-27
2021/07/29 06:14:46;;;;;;;6.57;3.83;;;24.70;84.60;;;;;;5019560;28;20949;-27
2021/07/29 06:17:29;;;;;;;5.20;3.93;;;24.70;84.60;;;;;;5011791;28;20496;-27
2021/07/29 06:20:08;;;;;;;4.70;3.70;;;24.60;84.80;;;;;;5011856;28;20525;-27
2021/07/29 06:22:40;;;;;;;3.80;3.40;;;24.50;85.60;;;;;;5014345;28;20453;-27
2021/07/29 06:25:13;;;;;;;5.03;4.63;;;24.40;86.00;;;;;;5022725;28;20450;-27
2021/07/29 06:27:49;;;;;;;4.40;3.80;;;24.40;86.50;;;;;;5018808;28;20464;-27
2021/07/29 06:30:22;;;;;;;6.40;3.53;;;24.30;86.50;;;;;;5010957;28;20518;-27
2021/07/29 06:32:54;;;;;;;4.10;3.60;;;24.30;86.50;;;;;;5005351;28;20447;-27
2021/07/29 06:35:24;;;;;;;3.43;2.90;;;24.20;87.20;;;;;;5023886;28;20442;-27
2021/07/29 06:37:57;;;;;;;4.97;3.57;;;24.10;87.70;;;;;;5022236;28;20560;-27
2021/07/29 06:40:28;;;;;;;4.23;3.93;;;24.00;88.60;;;;;;5022544;28;20770;-27
2021/07/29 06:42:59;;;;;;;4.13;3.43;;;23.90;88.70;;;;;;5023137;28;20521;-27
2021/07/29 06:45:30;;;;;;;4.03;3.43;;;23.80;89.00;;;;;;5009587;28;20478;-27
2021/07/29 06:48:01;;;;;;;4.40;3.73;;;23.80;89.20;;;;;;5019226;28;20550;-27
2021/07/29 06:50:32;;;;;;;4.20;3.80;;;23.80;89.30;;;;;;5020300;28;20461;-27
2021/07/29 06:53:05;;;;;;;3.70;3.30;;;23.70;90.10;;;;;;5022552;28;20482;-27
2021/07/29 06:55:36;;;;;;;4.17;3.73;;;23.60;90.00;;;;;;5022954;28;20451;-27
2021/07/29 06:58:07;;;;;;;5.00;3.20;;;23.60;90.20;;;;;;5019290;28;20474;-27
2021/07/29 07:00:38;;;;;;;4.23;3.27;;;23.50;90.40;;;;;;5020670;28;20577;-28
2021/07/29 07:03:09;;;;;;;3.50;3.20;;;23.40;90.80;;;;;;5013452;28;20444;-27
2021/07/29 07:05:45;;;;;;;4.30;3.30;;;23.40;91.00;;;;;;5014368;28;20483;-27
2021/07/29 07:08:17;;;;;;;4.17;3.70;;;23.30;91.70;;;;;;5022255;28;20477;-26
2021/07/29 07:10:50;;;;;;;4.97;3.80;;;23.20;92.40;;;;;;5015566;28;20461;-26
2021/07/29 07:13:21;;;;;;;4.93;3.63;;;23.10;92.60;;;;;;5018107;28;20509;-27
2021/07/29 07:15:52;;;;;;;4.37;3.67;;;23.10;93.10;;;;;;5019511;28;20919;-27
2021/07/29 07:18:23;;;;;;;4.60;4.03;;;23.00;93.40;;;;;;5020760;28;20446;-26
2021/07/29 07:20:54;;;;;;;4.43;3.60;;;23.00;93.70;;;;;;5021278;28;20489;-27
2021/07/29 07:23:27;;;;;;;3.70;3.13;;;22.90;94.00;;;;;;5022630;28;20470;-26
2021/07/29 07:25:57;;;;;;;4.03;3.47;;;22.80;94.60;;;;;;5021338;28;20489;-27
2021/07/29 07:28:33;;;;;;;3.00;2.70;;;22.70;95.00;;;;;;5021130;28;20467;-27
2021/07/29 07:31:04;;;;;;;5.10;3.40;;;22.70;95.50;;;;;;5019056;28;20440;-27
2021/07/29 07:33:35;;;;;;;6.40;3.50;;;22.70;95.40;;;;;;5018068;28;20453;-26
2021/07/29 07:36:06;;;;;;;3.93;3.57;;;22.60;96.30;;;;;;5021903;28;20421;-27
2021/07/29 07:38:39;;;;;;;6.00;3.60;;;22.60;96.30;;;;;;5018114;28;20436;-27
2021/07/29 07:41:10;;;;;;;4.50;4.10;;;22.50;96.40;;;;;;5017275;28;20878;-27
2021/07/29 07:43:41;;;;;;;3.80;3.40;;;22.50;96.80;;;;;;5022168;28;20441;-28
2021/07/29 07:46:15;;;;;;;3.60;3.30;;;22.40;97.00;;;;;;5020994;28;20459;-27
2021/07/29 07:48:47;;;;;;;5.80;3.53;;;22.50;97.00;;;;;;5020548;28;20446;-27
2021/07/29 07:51:19;;;;;;;4.97;3.40;;;22.50;97.20;;;;;;5019490;28;20855;-27
2021/07/29 07:53:52;;;;;;;3.83;3.33;;;22.40;97.90;;;;;;5021912;28;20532;-27
2021/07/29 07:56:23;;;;;;;3.87;3.40;;;22.30;97.40;;;;;;5012156;28;20426;-27
2021/07/29 07:58:53;;;;;;;3.30;2.90;;;22.30;97.90;;;;;;5013379;28;20451;-27
2021/07/29 08:01:24;;;;;;;4.23;3.83;;;22.20;97.90;;;;;;5002873;28;20548;-28
2021/07/29 08:03:56;;;;;;;3.60;3.30;;;22.10;98.00;;;;;;5016597;28;20443;-28
2021/07/29 08:06:26;;;;;;;3.97;3.60;;;22.10;98.00;;;;;;5020853;28;20539;-26
2021/07/29 08:08:59;;;;;;;4.87;3.20;;;22.10;98.40;;;;;;5015579;28;20746;-27
2021/07/29 08:11:30;;;;;;;3.73;3.33;;;22.00;98.20;;;;;;5004916;28;20451;-26
2021/07/29 08:14:01;;;;;;;3.80;2.83;;;22.00;98.90;;;;;;5015510;28;20458;-27
2021/07/29 08:16:32;;;;;;;3.63;3.33;;;21.90;99.10;;;;;;5013985;28;20825;-27
2021/07/29 08:19:03;;;;;;;3.27;3.07;;;21.90;99.90;;;;;;5016247;28;20758;-26
2021/07/29 08:21:34;;;;;;;5.33;3.80;;;21.80;99.90;;;;;;5019862;28;20606;-26
2021/07/29 08:24:11;;;;;;;3.53;3.23;;;21.70;99.90;;;;;;5011011;28;20457;-26
2021/07/29 08:26:41;;;;;;;4.20;3.80;;;21.70;99.90;;;;;;5018917;28;20421;-26
2021/07/29 08:29:12;;;;;;;3.50;3.00;;;21.60;99.90;;;;;;5016629;28;20448;-27
2021/07/29 08:31:43;;;;;;;3.57;3.27;;;21.60;99.90;;;;;;5017819;28;20529;-26
2021/07/29 08:34:14;;;;;;;3.97;3.40;;;21.50;99.90;;;;;;5019067;28;20424;-27
2021/07/29 08:36:45;;;;;;;3.63;3.33;;;21.50;99.90;;;;;;5020126;28;20454;-26
2021/07/29 08:39:18;;;;;;;3.80;3.50;;;21.50;99.90;;;;;;5013393;28;20465;-26
2021/07/29 08:41:49;;;;;;;3.53;2.90;;;21.40;99.90;;;;;;5021902;28;20513;-26
2021/07/29 08:44:20;;;;;;;5.17;4.20;;;21.30;99.90;;;;;;5022145;28;20853;-26
2021/07/29 08:46:52;;;;;;;6.10;3.87;;;21.30;99.90;;;;;;5018325;28;20469;-26
2021/07/29 08:49:27;;;;;;;4.63;3.33;;;21.20;99.90;;;;;;5024504;28;20485;-26
2021/07/29 08:51:58;;;;;;;3.70;3.40;;;21.10;99.90;;;;;;5022262;28;20507;-26
2021/07/29 08:54:31;;;;;;;3.37;3.07;;;21.10;99.90;;;;;;5021685;28;20452;-27
2021/07/29 08:57:02;;;;;;;3.57;3.10;;;21.00;99.90;;;;;;5021802;28;20492;-27
2021/07/29 08:59:33;;;;;;;3.50;3.20;;;20.90;99.90;;;;;;5024928;28;20420;-27
2021/07/29 09:02:04;;;;;;;3.80;3.40;;;20.80;99.90;;;;;;5015895;28;20508;-27
2021/07/29 09:04:35;;;;;;;4.60;3.83;;;20.80;99.90;;;;;;5022026;28;20596;-26
2021/07/29 09:07:06;;;;;;;3.90;3.60;;;20.70;99.90;;;;;;5008407;28;20429;-26
2021/07/29 09:09:48;;;;;;;4.27;3.77;;;20.70;99.90;;;;;;5024386;28;20462;-26
2021/07/29 09:12:21;;;;;;;3.80;3.40;;;20.70;99.90;;;;;;5019601;28;20460;-26
2021/07/29 09:14:53;;;;;;;4.53;3.67;;;20.60;99.90;;;;;;5025383;28;20417;-26
2021/07/29 09:17:25;;;;;;;3.60;3.30;;;20.60;99.90;;;;;;5020293;28;20426;-26
2021/07/29 09:19:57;;;;;;;4.57;3.73;;;20.40;99.90;;;;;;5017856;28;20529;-26
2021/07/29 09:22:29;;;;;;;5.70;3.50;;;20.40;99.90;;;;;;5022761;28;20621;-26
2021/07/29 09:25:07;;;;;;;3.93;3.53;;;20.40;99.90;;;;;;5024552;28;20461;-26
2021/07/29 09:27:49;;;;;;;5.13;4.00;;;20.30;99.90;;;;;;5023118;28;20444;-26
2021/07/29 09:30:25;;;;;;;4.40;3.90;;;20.30;99.90;;;;;;5023624;28;20453;-27
2021/07/29 09:32:58;;;;;;;3.40;3.10;;;20.20;99.90;;;;;;5017640;28;20850;-26
2021/07/29 09:35:38;;;;;;;3.90;3.60;;;20.20;99.90;;;;;;5024410;28;20436;-27
2021/07/29 09:38:13;;;;;;;4.50;3.80;;;20.10;99.90;;;;;;5024291;28;20454;-26
2021/07/29 09:40:51;;;;;;;5.83;4.00;;;20.10;99.90;;;;;;5020209;28;20802;-26
2021/07/29 09:43:23;;;;;;;4.20;3.63;;;20.10;99.90;;;;;;5022841;28;20521;-26
2021/07/29 09:45:56;;;;;;;6.40;3.20;;;20.20;99.90;;;;;;5024467;28;20484;-26
2021/07/29 09:48:27;;;;;;;3.63;3.27;;;20.10;99.90;;;;;;5013939;28;20447;-26
2021/07/29 09:50:59;;;;;;;4.20;3.63;;;20.00;99.90;;;;;;5019180;28;20442;-26
2021/07/29 09:53:34;;;;;;;6.63;4.00;;;20.00;99.90;;;;;;5017850;28;20433;-26
2021/07/29 09:56:11;;;;;;;4.13;3.73;;;19.90;99.90;;;;;;5020855;28;20424;-27
2021/07/29 09:59:03;;;;;;;4.10;3.80;;;19.90;99.90;;;;;;5009462;28;20522;-27
2021/07/29 10:01:34;;;;;;;4.90;3.80;;;19.80;99.90;;;;;;5017480;28;20485;-27
2021/07/29 10:04:07;;;;;;;5.53;3.63;;;19.80;99.90;;;;;;5008045;28;20437;-27
2021/07/29 10:06:42;;;;;;;5.23;3.73;;;19.70;99.90;;;;;;5021103;28;20505;-27
2021/07/29 10:09:14;;;;;;;3.50;3.20;;;19.80;99.90;;;;;;5019500;28;20425;-27
2021/07/29 10:11:50;;;;;;;4.10;3.70;;;19.80;99.90;;;;;;5021625;28;20466;-26
2021/07/29 10:14:48;;;;;;;5.10;3.27;;;19.60;99.90;;;;;;5023590;28;20537;-27
2021/07/29 10:17:41;;;;;;;3.53;3.23;;;19.60;99.90;;;;;;5020759;28;21243;-27
2021/07/29 10:20:19;;;;;;;3.50;3.20;;;19.60;99.90;;;;;;5023797;28;20466;-26
2021/07/29 10:22:51;;;;;;;7.97;3.50;;;19.60;99.90;;;;;;5019293;28;20460;-27
2021/07/29 10:25:22;;;;;;;5.70;3.70;;;19.60;99.90;;;;;;5021136;28;21094;-27
2021/07/29 10:28:25;;;;;;;3.93;3.60;;;19.60;99.90;;;;;;5010454;28;20497;-26
2021/07/29 10:30:57;;;;;;;4.47;4.00;;;19.50;99.90;;;;;;5014848;28;20423;-26
2021/07/29 10:33:28;;;;;;;3.57;3.03;;;19.50;99.90;;;;;;5021709;28;20458;-26
2021/07/29 10:36:00;;;;;;;3.60;3.30;;;19.40;99.90;;;;;;5021151;28;20742;-26
2021/07/29 10:38:52;;;;;;;4.07;3.40;;;19.50;99.90;;;;;;5012314;28;20443;-27
2021/07/29 10:41:48;;;;;;;3.97;3.57;;;19.40;99.90;;;;;;5015278;28;20545;-26
2021/07/29 10:44:51;;;;;;;4.20;3.70;;;19.40;99.90;;;;;;5019374;28;21013;-27
2021/07/29 10:47:39;;;;;;;5.17;3.50;;;19.30;99.90;;;;;;5011282;28;20459;-27
2021/07/29 10:50:12;;;;;;;4.33;3.93;;;19.20;99.90;;;;;;5023099;28;20465;-26
2021/07/29 10:52:47;;;;;;;4.10;3.70;;;19.20;99.90;;;;;;5008333;28;20440;-26
2021/07/29 10:55:21;;;;;;;4.43;3.50;;;19.10;99.90;;;;;;5016504;28;20518;-26
2021/07/29 10:58:03;;;;;;;4.80;3.63;;;19.10;99.90;;;;;;5017541;28;20501;-26
2021/07/29 11:00:36;;;;;;;4.20;3.53;;;19.10;99.90;;;;;;5016774;28;20490;-26
2021/07/29 11:03:23;;;;;;;4.80;3.67;;;19.00;99.90;;;;;;5007822;28;20502;-26
2021/07/29 11:06:05;;;;;;;4.00;3.70;;;19.00;99.90;;;;;;5019827;28;20450;-27
2021/07/29 11:08:37;;;;;;;4.17;3.70;;;19.00;99.90;;;;;;5016836;28;20505;-27
2021/07/29 11:11:08;;;;;;;4.23;3.83;;;19.00;99.90;;;;;;5006600;28;20463;-27
2021/07/29 11:13:39;;;;;;;3.70;3.40;;;18.90;99.90;;;;;;5017031;28;20453;-27
2021/07/29 11:16:12;;;;;;;3.57;3.27;;;18.90;99.90;;;;;;5019425;28;20452;-27
2021/07/29 11:18:43;;;;;;;4.33;3.27;;;18.90;99.90;;;;;;5018264;28;20486;-27
2021/07/29 11:21:16;;;;;;;5.17;3.93;;;18.90;99.90;;;;;;5022055;28;20465;-27
2021/07/29 11:23:47;;;;;;;6.33;3.53;;;18.90;99.90;;;;;;5019482;28;20644;-27
2021/07/29 11:26:17;;;;;;;4.10;3.70;;;18.90;99.90;;;;;;5021115;28;20525;-27
2021/07/29 11:29:07;;;;;;;3.77;3.40;;;18.90;99.90;;;;;;5021611;28;20485;-27
2021/07/29 11:31:41;;;;;;;4.00;3.60;;;18.80;99.90;;;;;;5002763;28;20448;-27
2021/07/29 11:34:12;;;;;;;4.10;3.67;;;18.70;99.90;;;;;;5018983;28;20451;-27
2021/07/29 11:36:54;;;;;;;5.10;3.73;;;18.70;99.90;;;;;;5022005;28;20481;-27
2021/07/29 11:39:26;;;;;;;4.90;3.33;;;18.60;99.90;;;;;;5021468;28;20478;-27
2021/07/29 11:41:58;;;;;;;3.23;2.90;;;18.60;99.90;;;;;;5021729;28;20485;-27
2021/07/29 11:44:40;;;;;;;3.60;3.30;;;18.60;99.90;;;;;;5021238;28;20457;-27
2021/07/29 11:47:13;;;;;;;4.10;3.70;;;18.50;99.90;;;;;;5021753;28;20446;-27
2021/07/29 11:49:48;;;;;;;3.30;2.97;;;18.60;99.90;;;;;;5015595;28;20490;-27
2021/07/29 11:52:20;;;;;;;5.20;3.87;;;18.60;99.90;;;;;;5018892;28;20454;-27
2021/07/29 11:54:51;;;;;;;4.53;3.10;;;18.50;99.90;;;;;;5012478;28;20462;-27
2021/07/29 11:57:29;;;;;;;5.77;3.50;;;18.50;99.90;;;;;;5019423;28;20461;-27
2021/07/29 12:00:01;;;;;;;4.80;3.33;;;18.50;99.90;;;;;;5020533;28;20485;-27
2021/07/29 12:02:34;;;;;;;3.83;3.30;;;18.50;99.90;;;;;;5018617;28;20480;-26
2021/07/29 12:05:08;;;;;;;4.07;3.60;;;18.40;99.90;;;;;;5017426;28;20447;-26
2021/07/29 12:07:43;;;;;;;3.57;3.20;;;18.40;99.90;;;;;;5012518;28;20489;-26
2021/07/29 12:10:17;;;;;;;4.67;3.93;;;18.40;99.90;;;;;;5005842;28;20459;-26
2021/07/29 12:12:48;;;;;;;3.80;3.50;;;18.40;99.90;;;;;;5020220;28;20443;-26
2021/07/29 12:15:19;;;;;;;3.53;3.23;;;18.30;99.90;;;;;;5021092;28;21022;-26
2021/07/29 12:17:52;;;;;;;3.50;3.20;;;18.30;99.90;;;;;;5021305;28;20450;-27
2021/07/29 12:20:24;;;;;;;3.43;3.10;;;18.30;99.90;;;;;;5018933;28;20417;-26
2021/07/29 12:23:11;;;;;;;5.53;3.27;;;18.30;99.90;;;;;;5020229;28;20508;-27
2021/07/29 12:25:42;;;;;;;6.10;3.40;;;18.30;99.90;;;;;;5023133;28;20521;-26
2021/07/29 12:28:13;;;;;;;3.20;2.90;;;18.20;99.90;;;;;;5024930;28;20465;-27
2021/07/29 12:30:45;;;;;;;4.60;3.03;;;18.10;99.90;;;;;;5023006;28;20482;-26
2021/07/29 12:33:21;;;;;;;4.27;3.87;;;18.20;99.90;;;;;;5017305;28;20477;-26
2021/07/29 12:36:00;;;;;;;5.03;3.30;;;18.10;99.90;;;;;;5022952;28;20484;-26
2021/07/29 12:38:31;;;;;;;5.37;2.70;;;18.10;99.90;;;;;;5024798;28;20486;-26
2021/07/29 12:41:03;;;;;;;3.80;3.27;;;18.10;99.90;;;;;;5025885;28;20457;-26
2021/07/29 12:46:42;;;;;;;4.33;3.20;;;18.00;99.90;;;;;;5016370;28;20602;-26
2021/07/29 12:49:16;;;;;;;3.23;2.93;;;17.90;99.90;;;;;;5010631;28;20937;-25
2021/07/29 12:51:49;;;;;;;3.67;3.37;;;17.80;99.90;;;;;;5016492;28;20425;-26
2021/07/29 12:54:21;;;;;;;4.13;3.27;;;17.90;99.90;;;;;;5006805;28;20493;-26
2021/07/29 12:57:07;;;;;;;4.40;3.70;;;17.90;99.90;;;;;;5012088;28;20451;-26
2021/07/29 12:59:38;;;;;;;4.63;3.47;;;17.90;99.90;;;;;;5021064;28;20469;-26
2021/07/29 13:02:09;;;;;;;4.13;3.67;;;17.90;99.90;;;;;;5016233;28;20589;-26
2021/07/29 13:04:42;;;;;;;8.33;3.30;;;17.90;99.90;;;;;;5017151;28;20489;-26
2021/07/29 13:07:15;;;;;;;3.40;3.10;;;17.80;99.90;;;;;;5010980;28;20473;-26
2021/07/29 13:09:47;;;;;;;7.07;3.50;;;17.70;99.90;;;;;;5006428;28;20508;-26
2021/07/29 13:12:17;;;;;;;3.67;3.27;;;17.80;99.90;;;;;;5018798;28;20458;-26
2021/07/29 13:14:48;;;;;;;4.40;2.93;;;17.70;99.90;;;;;;5025105;28;20497;-27
2021/07/29 13:17:19;;;;;;;3.03;2.73;;;17.70;99.90;;;;;;5020994;28;20807;-26
2021/07/29 13:19:52;;;;;;;3.80;3.50;;;17.70;99.90;;;;;;5016286;28;20459;-26
2021/07/29 13:22:23;;;;;;;4.13;3.33;;;17.70;99.90;;;;;;5018516;28;20446;-26
2021/07/29 13:24:54;;;;;;;3.47;3.17;;;17.70;99.90;;;;;;5023760;28;20508;-26
2021/07/29 13:27:26;;;;;;;4.60;4.17;;;17.80;99.90;;;;;;5015643;28;20490;-26
2021/07/29 13:29:57;;;;;;;3.83;3.43;;;17.80;99.90;;;;;;5013706;28;20454;-26
2021/07/29 13:32:27;;;;;;;3.10;2.80;;;17.90;99.90;;;;;;5015044;28;20513;-26
2021/07/29 13:35:00;;;;;;;4.03;3.40;;;17.90;99.90;;;;;;5023864;28;20450;-26
2021/07/29 13:37:31;;;;;;;3.53;2.70;;;18.00;99.90;;;;;;5020981;28;20552;-26
2021/07/29 13:40:02;;;;;;;3.93;3.30;;;17.90;99.90;;;;;;5025355;28;20458;-27
2021/07/29 13:42:34;;;;;;;5.93;3.70;;;17.90;99.90;;;;;;5024604;28;20481;-26
2021/07/29 13:45:18;;;;;;;3.40;3.07;;;18.00;99.90;;;;;;5024390;28;20493;-26